Time;durP1;ratioP1;P1;durP2;ratioP2;P2;SDS_P1;SDS_P2;PMS_P1;PMS_P2;Temp;Humidity;BMP_temperature;BMP_pressure;BME280_temperature;BME280_humidity;BME280_pressure;Samples;Min_cycle;Max_cycle;Signal;HPM_P1;HPM_P2
2023/01/06 00:01:09;;;;;;;1.23;1.13;;;;;;;10.70;100.00;99117.00;4173068;28;20232;-48
2023/01/06 00:03:10;;;;;;;1.27;1.20;;;;;;;10.64;100.00;99120.69;4175642;28;20227;-47
2023/01/06 00:05:13;;;;;;;3.20;1.48;;;;;;;10.70;100.00;99114.28;4170977;28;20240;-48
2023/01/06 00:07:15;;;;;;;1.35;1.20;;;;;;;10.71;100.00;99115.09;4170619;28;20845;-47
2023/01/06 00:09:16;;;;;;;1.65;1.55;;;;;;;10.72;100.00;99111.28;4170236;28;20270;-48
2023/01/06 00:11:18;;;;;;;0.93;0.93;;;;;;;10.70;100.00;99103.31;4170980;28;20231;-47
2023/01/06 00:13:20;;;;;;;1.00;1.00;;;;;;;10.65;100.00;99105.06;4171979;28;20262;-48
2023/01/06 00:15:22;;;;;;;1.67;1.58;;;;;;;10.68;100.00;99105.44;4185438;28;20346;-48
2023/01/06 00:17:24;;;;;;;1.52;1.42;;;;;;;10.68;100.00;99096.41;4185385;28;20287;-49
2023/01/06 00:19:25;;;;;;;1.55;1.45;;;;;;;10.67;100.00;99098.31;4169035;28;20208;-48
2023/01/06 00:21:28;;;;;;;1.60;1.50;;;;;;;10.68;100.00;99097.22;4174596;28;20641;-48
2023/01/06 00:23:30;;;;;;;1.70;1.58;;;;;;;10.64;100.00;99092.47;4168764;28;20668;-48
2023/01/06 00:25:32;;;;;;;1.50;1.40;;;;;;;10.72;100.00;99100.31;4172017;28;20211;-48
2023/01/06 00:27:34;;;;;;;2.42;1.77;;;;;;;10.66;100.00;99099.38;4175663;28;20617;-48
2023/01/06 00:29:35;;;;;;;2.05;1.83;;;;;;;10.70;100.00;99097.00;4172383;28;20672;-48
2023/01/06 00:31:37;;;;;;;1.27;1.20;;;;;;;10.65;100.00;99094.13;4169354;28;20255;-48
2023/01/06 00:33:39;;;;;;;1.60;1.50;;;;;;;10.65;100.00;99091.38;4170048;28;20298;-48
2023/01/06 00:35:41;;;;;;;1.60;1.50;;;;;;;10.65;100.00;99091.38;4172158;28;20208;-48
2023/01/06 00:37:42;;;;;;;1.50;1.40;;;;;;;10.65;100.00;99094.97;4175417;28;20318;-49
2023/01/06 00:39:44;;;;;;;2.00;1.90;;;;;;;10.64;100.00;99092.47;4149805;28;20266;-48
2023/01/06 00:42:04;;;;;;;1.92;1.50;;;;;;;10.64;100.00;99092.47;4174194;28;20243;-48
2023/01/06 00:44:07;;;;;;;2.22;1.80;;;;;;;10.63;100.00;99090.81;4172112;28;20204;-48
2023/01/06 00:46:09;;;;;;;1.60;1.50;;;;;;;10.62;100.00;99098.16;4172267;28;20219;-47
2023/01/06 00:48:10;;;;;;;1.35;1.25;;;;;;;10.70;100.00;99100.59;4171474;28;20377;-48
2023/01/06 00:50:12;;;;;;;1.35;1.25;;;;;;;10.65;100.00;99100.44;4156378;28;20320;-50
2023/01/06 00:52:14;;;;;;;2.05;1.30;;;;;;;10.66;100.00;99101.25;4171604;28;20679;-48
2023/01/06 00:54:17;;;;;;;1.00;1.00;;;;;;;10.63;100.00;99096.28;4170786;28;20216;-48
2023/01/06 00:56:19;;;;;;;1.30;1.20;;;;;;;10.60;100.00;99097.56;4173274;28;20608;-48
2023/01/06 00:58:20;;;;;;;0.85;0.85;;;;;;;10.59;100.00;99095.06;4172576;28;21029;-48
2023/01/06 01:00:24;;;;;;;0.73;0.73;;;;;;;10.60;100.00;99107.69;4160182;28;20232;-48
2023/01/06 01:02:26;;;;;;;1.00;1.00;;;;;;;10.53;100.00;99104.22;4171971;28;20211;-48
2023/01/06 01:04:28;;;;;;;0.85;0.85;;;;;;;10.54;100.00;99105.91;4169875;28;20299;-48
2023/01/06 01:06:30;;;;;;;1.13;1.02;;;;;;;10.52;100.00;99105.28;4171247;28;20277;-48
2023/01/06 01:08:32;;;;;;;0.90;0.90;;;;;;;10.45;100.00;99101.84;4185365;28;20211;-48
2023/01/06 01:10:33;;;;;;;0.93;0.93;;;;;;;10.46;100.00;99106.22;4170016;28;21212;-48
2023/01/06 01:12:35;;;;;;;0.70;0.70;;;;;;;10.42;100.00;99110.53;4169038;28;20676;-50
2023/01/06 01:14:48;;;;;;;0.90;0.90;;;;;;;10.40;100.00;99101.69;4168677;28;20211;-48
2023/01/06 01:16:50;;;;;;;1.05;0.68;;;;;;;10.38;100.00;99112.03;4168097;28;20295;-48
2023/01/06 01:18:52;;;;;;;0.70;0.70;;;;;;;10.45;100.00;99110.88;4172026;28;21052;-48
2023/01/06 01:20:54;;;;;;;0.60;0.60;;;;;;;10.41;100.00;99114.31;4167811;28;20259;-48
2023/01/06 01:22:55;;;;;;;0.73;0.73;;;;;;;10.45;100.00;99110.03;4170479;28;20212;-48
2023/01/06 01:24:57;;;;;;;0.80;0.80;;;;;;;10.41;100.00;99108.84;4170035;28;20208;-48
2023/01/06 01:26:59;;;;;;;0.75;0.75;;;;;;;10.38;100.00;99121.09;4169792;28;20220;-48
2023/01/06 01:29:01;;;;;;;0.80;0.80;;;;;;;10.38;100.00;99114.78;4171234;28;20211;-48
2023/01/06 01:31:03;;;;;;;0.75;0.75;;;;;;;10.37;100.00;99113.13;4172913;28;20758;-48
2023/01/06 01:33:05;;;;;;;0.68;0.68;;;;;;;10.31;100.00;99125.00;4167777;28;20752;-49
2023/01/06 01:35:07;;;;;;;1.05;0.95;;;;;;;10.35;100.00;99112.53;4172756;28;21836;-48
2023/01/06 01:37:09;;;;;;;1.42;1.35;;;;;;;10.28;100.00;99114.53;4170131;28;20211;-48
2023/01/06 01:39:13;;;;;;;0.80;0.80;;;;;;;10.23;100.00;99128.06;4182378;28;20226;-48
2023/01/06 01:41:17;;;;;;;1.13;1.02;;;;;;;10.23;100.00;99128.06;4169170;28;20256;-48
2023/01/06 01:43:19;;;;;;;1.20;1.10;;;;;;;10.30;100.00;99120.59;4167068;28;20239;-48
2023/01/06 01:45:28;;;;;;;0.85;0.85;;;;;;;10.20;100.00;99129.38;4171211;28;20211;-48
2023/01/06 01:47:35;;;;;;;0.90;0.90;;;;;;;10.23;100.00;99125.34;4174517;28;20246;-48
2023/01/06 01:49:38;;;;;;;0.90;0.90;;;;;;;10.22;100.00;99120.94;4170947;28;20716;-49
2023/01/06 01:51:44;;;;;;;3.33;1.15;;;;;;;10.15;100.00;99121.00;4173684;28;20243;-48
2023/01/06 01:53:51;;;;;;;0.75;0.75;;;;;;;10.14;100.00;99118.53;4168838;28;20240;-48
2023/01/06 01:55:56;;;;;;;0.85;0.85;;;;;;;10.18;100.00;99119.72;4173080;28;20302;-48
2023/01/06 01:58:09;;;;;;;0.75;0.75;;;;;;;10.14;100.00;99124.00;4171350;28;20207;-49
2023/01/06 02:00:11;;;;;;;1.05;1.00;;;;;;;10.19;100.00;99118.66;4164341;28;20231;-48
2023/01/06 02:02:14;;;;;;;1.10;0.80;;;;;;;10.11;100.00;99118.97;4167025;28;20208;-48
2023/01/06 02:04:18;;;;;;;0.90;0.90;;;;;;;10.08;100.00;99120.28;4168400;28;20203;-48
2023/01/06 02:06:22;;;;;;;1.45;1.35;;;;;;;10.11;100.00;99121.72;4169013;28;20236;-48
2023/01/06 02:08:37;;;;;;;1.27;1.17;;;;;;;10.07;100.00;99118.59;4168444;28;20999;-48
2023/01/06 02:10:38;;;;;;;0.85;0.85;;;;;;;10.05;100.00;99119.91;4170082;28;20760;-48
2023/01/06 02:12:41;;;;;;;1.20;0.85;;;;;;;10.01;100.00;99107.75;4168592;28;20229;-48
2023/01/06 02:14:43;;;;;;;0.88;0.88;;;;;;;10.12;100.00;99121.50;4170270;28;20303;-48
2023/01/06 02:16:56;;;;;;;2.72;0.90;;;;;;;10.10;100.00;99117.31;4170373;28;20342;-48
2023/01/06 02:19:25;;;;;;;2.40;0.70;;;;;;;10.01;100.00;99113.22;4185008;28;20231;-48
2023/01/06 02:21:27;;;;;;;0.70;0.70;;;;;;;9.99;100.00;99113.44;4181664;28;20749;-48
2023/01/06 02:23:54;;;;;;;0.80;0.80;;;;;;;9.93;100.00;99108.03;4173670;28;20216;-48
2023/01/06 02:26:14;;;;;;;0.80;0.80;;;;;;;9.93;100.00;99105.31;4164541;28;20204;-48
2023/01/06 02:28:47;;;;;;;1.20;0.60;;;;;;;9.96;100.00;99113.06;4168369;28;20618;-48
2023/01/06 02:30:52;;;;;;;0.60;0.60;;;;;;;9.94;100.00;99101.53;4172592;28;20669;-49
2023/01/06 02:33:18;;;;;;;0.80;0.80;;;;;;;9.93;100.00;99106.16;4169131;28;20233;-48
2023/01/06 02:35:24;;;;;;;0.90;0.68;;;;;;;9.90;100.00;99103.06;4168261;28;20247;-48
2023/01/06 02:37:46;;;;;;;0.80;0.80;;;;;;;9.94;100.00;99107.00;4168884;28;20238;-49
2023/01/06 02:40:34;;;;;;;1.42;0.85;;;;;;;9.87;100.00;99095.34;4170016;28;20658;-49
2023/01/06 02:42:53;;;;;;;0.75;0.75;;;;;;;9.92;100.00;99095.44;4138562;28;20208;-48
2023/01/06 02:45:18;;;;;;;0.82;0.82;;;;;;;9.89;100.00;99088.53;4168061;28;20236;-49
2023/01/06 02:47:43;;;;;;;1.33;1.23;;;;;;;9.87;100.00;99085.22;4171657;28;20205;-49
2023/01/06 02:49:54;;;;;;;0.60;0.60;;;;;;;9.88;100.00;99077.88;4169227;28;20210;-48
2023/01/06 02:52:14;;;;;;;1.02;0.95;;;;;;;9.81;100.00;99080.66;4185581;28;20204;-48
2023/01/06 02:54:27;;;;;;;1.30;0.60;;;;;;;9.83;100.00;99075.81;4172189;28;20192;-48
2023/01/06 02:56:31;;;;;;;0.47;0.47;;;;;;;9.77;100.00;99074.03;4170899;28;20205;-48
2023/01/06 02:58:34;;;;;;;1.55;0.80;;;;;;;9.80;100.00;99078.16;4170265;28;20343;-48
2023/01/06 03:00:52;;;;;;;0.80;0.80;;;;;;;9.83;100.00;99083.19;4169872;28;20225;-48
2023/01/06 03:02:59;;;;;;;0.60;0.60;;;;;;;9.82;100.00;99076.06;4173201;28;20208;-48
2023/01/06 03:05:04;;;;;;;0.60;0.60;;;;;;;9.82;100.00;99079.59;4168680;28;20239;-49
2023/01/06 03:07:06;;;;;;;0.60;0.60;;;;;;;9.83;100.00;99077.72;4168366;28;20210;-49
2023/01/06 03:09:08;;;;;;;1.42;0.60;;;;;;;9.81;100.00;99074.38;4171499;28;21710;-49
2023/01/06 03:11:10;;;;;;;0.80;0.80;;;;;;;9.81;100.00;99075.22;4169008;28;20224;-48
2023/01/06 03:13:20;;;;;;;1.95;0.80;;;;;;;9.82;100.00;99076.06;4170687;28;20221;-49
2023/01/06 03:15:23;;;;;;;2.25;0.68;;;;;;;9.74;100.00;99081.84;4173218;28;20250;-48
2023/01/06 03:17:24;;;;;;;0.70;0.70;;;;;;;9.72;100.00;99083.97;4166299;28;20243;-50
2023/01/06 03:19:26;;;;;;;0.88;0.88;;;;;;;9.67;100.00;99061.97;4157468;28;20209;-49
2023/01/06 03:21:35;;;;;;;0.57;0.57;;;;;;;9.66;100.00;99073.94;4169556;28;20204;-49
2023/01/06 03:23:38;;;;;;;0.50;0.50;;;;;;;9.65;100.00;99064.09;4150938;28;20243;-49
2023/01/06 03:25:40;;;;;;;1.15;0.77;;;;;;;9.56;100.00;99071.75;4170393;28;20204;-50
2023/01/06 03:27:42;;;;;;;0.80;0.80;;;;;;;9.60;100.00;99066.66;4183116;28;20299;-49
2023/01/06 03:29:43;;;;;;;0.85;0.80;;;;;;;9.59;100.00;99073.19;4170674;28;20295;-48
2023/01/06 03:32:10;;;;;;;0.63;0.63;;;;;;;9.66;100.00;99071.22;4170580;28;20208;-49
2023/01/06 03:34:49;;;;;;;0.73;0.73;;;;;;;9.59;100.00;99081.41;4168324;28;20744;-49
2023/01/06 03:37:17;;;;;;;2.85;0.60;;;;;;;9.61;100.00;99073.81;4169067;28;20321;-48
2023/01/06 03:39:39;;;;;;;0.57;0.57;;;;;;;9.61;100.00;99076.56;4171836;28;20210;-48
2023/01/06 03:44:05;;;;;;;0.57;0.57;;;;;;;9.62;100.00;99080.94;4169421;28;20659;-48
2023/01/06 03:46:25;;;;;;;0.70;0.68;;;;;;;9.58;100.00;99074.25;4173513;28;20230;-49
2023/01/06 03:48:42;;;;;;;0.90;0.90;;;;;;;9.53;100.00;99061.31;4175327;28;20211;-49
2023/01/06 03:50:56;;;;;;;0.50;0.50;;;;;;;9.54;100.00;99056.69;4173378;28;20252;-48
2023/01/06 03:53:15;;;;;;;0.68;0.68;;;;;;;9.50;100.00;99055.47;4187247;28;20306;-49
2023/01/06 03:55:19;;;;;;;0.63;0.63;;;;;;;9.53;100.00;99055.00;4171248;28;20204;-48
2023/01/06 03:57:24;;;;;;;0.70;0.70;;;;;;;9.57;100.00;99045.28;4168546;28;22311;-48
2023/01/06 03:59:29;;;;;;;0.63;0.63;;;;;;;9.50;100.00;99041.81;4171093;28;20214;-49
2023/01/06 04:01:31;;;;;;;0.60;0.60;;;;;;;9.50;100.00;99039.91;4188255;28;20705;-48
2023/01/06 04:03:33;;;;;;;0.65;0.65;;;;;;;9.42;100.00;99036.66;4184940;28;20214;-49
2023/01/06 04:05:35;;;;;;;0.60;0.60;;;;;;;9.49;100.00;99038.22;4172344;28;20204;-48
2023/01/06 04:07:41;;;;;;;0.40;0.40;;;;;;;9.36;100.00;99037.59;4159076;28;21812;-49
2023/01/06 04:09:43;;;;;;;0.70;0.70;;;;;;;9.42;100.00;99040.22;4170996;28;20670;-49
2023/01/06 04:14:04;;;;;;;0.60;0.60;;;;;;;9.45;100.00;99041.66;4169988;28;20908;-48
2023/01/06 04:16:07;;;;;;;0.50;0.50;;;;;;;9.39;100.00;99039.84;4172246;28;20236;-48
2023/01/06 04:18:09;;;;;;;0.68;0.68;;;;;;;9.47;100.00;99039.50;4184973;28;20204;-50
2023/01/06 04:20:14;;;;;;;1.02;0.80;;;;;;;9.45;100.00;99042.50;4187164;28;20255;-49
2023/01/06 04:22:16;;;;;;;0.57;0.57;;;;;;;9.48;100.00;99031.09;4174194;28;20298;-48
2023/01/06 04:24:18;;;;;;;0.60;0.60;;;;;;;9.55;100.00;99025.56;4169627;28;20220;-48
2023/01/06 04:26:19;;;;;;;0.60;0.60;;;;;;;9.45;100.00;99036.19;4153165;28;20212;-48
2023/01/06 04:28:21;;;;;;;0.70;0.70;;;;;;;9.48;100.00;99028.38;4169737;28;20258;-48
2023/01/06 04:30:23;;;;;;;0.80;0.80;;;;;;;9.51;100.00;99024.34;4171232;28;20255;-49
2023/01/06 04:32:25;;;;;;;0.70;0.70;;;;;;;9.49;100.00;99015.56;4175683;28;20242;-49
2023/01/06 04:34:26;;;;;;;0.60;0.60;;;;;;;9.55;100.00;99017.38;4170109;28;20319;-49
2023/01/06 04:36:29;;;;;;;0.70;0.70;;;;;;;9.50;100.00;99029.00;4171638;28;20231;-49
2023/01/06 04:38:31;;;;;;;0.60;0.60;;;;;;;9.50;100.00;99022.69;4174542;28;20303;-49
2023/01/06 04:40:33;;;;;;;0.50;0.50;;;;;;;9.55;100.00;99022.84;4172031;28;20709;-50
2023/01/06 04:44:55;;;;;;;0.68;0.68;;;;;;;9.50;100.00;99022.69;4169112;28;20204;-48
2023/01/06 04:46:56;;;;;;;0.63;0.63;;;;;;;9.52;100.00;99020.53;4165447;28;20303;-50
2023/01/06 04:48:58;;;;;;;0.60;0.60;;;;;;;9.56;100.00;99021.75;4170602;28;20302;-49
2023/01/06 04:51:07;;;;;;;0.70;0.70;;;;;;;9.50;100.00;99017.22;4172879;28;20282;-48
2023/01/06 04:53:11;;;;;;;0.70;0.70;;;;;;;9.56;100.00;99028.03;4187954;28;20234;-49
2023/01/06 04:55:12;;;;;;;0.60;0.60;;;;;;;9.62;100.00;99026.31;4186677;28;20656;-48
2023/01/06 04:57:14;;;;;;;0.55;0.55;;;;;;;9.62;100.00;99026.31;4173101;28;20218;-48
2023/01/06 04:59:16;;;;;;;0.60;0.60;;;;;;;9.61;100.00;99025.47;4176889;28;20294;-49
2023/01/06 05:01:18;;;;;;;0.60;0.60;;;;;;;9.59;100.00;99032.22;4171542;28;20226;-49
2023/01/06 05:03:19;;;;;;;0.70;0.70;;;;;;;9.52;100.00;99040.50;4171343;28;20197;-48
2023/01/06 05:05:21;;;;;;;0.55;0.55;;;;;;;9.55;100.00;99031.03;4172587;28;20371;-48
2023/01/06 05:07:23;;;;;;;0.60;0.60;;;;;;;9.51;100.00;99035.28;4172358;28;20238;-49
2023/01/06 05:09:25;;;;;;;0.63;0.63;;;;;;;9.59;100.00;99032.22;4173218;28;20299;-49
2023/01/06 05:11:26;;;;;;;0.70;0.70;;;;;;;9.51;100.00;99036.13;4170048;28;20244;-49
2023/01/06 05:13:30;;;;;;;0.70;0.70;;;;;;;9.50;100.00;99036.34;4173017;28;20224;-49
2023/01/06 05:15:32;;;;;;;0.60;0.60;;;;;;;9.55;100.00;99036.50;4170232;28;20270;-48
2023/01/06 05:17:33;;;;;;;0.90;0.75;;;;;;;9.54;100.00;99040.28;4173091;28;20199;-48
2023/01/06 05:19:36;;;;;;;0.75;0.75;;;;;;;9.54;100.00;99046.56;4170419;28;21827;-50
2023/01/06 05:21:38;;;;;;;0.77;0.77;;;;;;;9.58;100.00;99042.31;4171613;28;20625;-48
2023/01/06 05:23:40;;;;;;;0.75;0.75;;;;;;;9.54;100.00;99040.28;4164217;28;20249;-50
2023/01/06 05:25:42;;;;;;;0.60;0.60;;;;;;;9.54;100.00;99040.28;4172758;28;20239;-49
2023/01/06 05:27:44;;;;;;;0.70;0.65;;;;;;;9.46;100.00;99051.50;4168891;28;20614;-49
2023/01/06 05:29:45;;;;;;;0.70;0.70;;;;;;;9.31;100.00;99042.88;4170169;28;20270;-49
2023/01/06 05:31:47;;;;;;;0.90;0.80;;;;;;;9.31;100.00;99048.34;4172283;28;20302;-50
2023/01/06 05:33:49;;;;;;;0.70;0.70;;;;;;;9.28;100.00;99046.91;4166812;28;20296;-51
2023/01/06 05:35:58;;;;;;;0.73;0.73;;;;;;;9.25;100.00;99046.53;4167677;28;20242;-51
2023/01/06 05:38:00;;;;;;;0.90;0.90;;;;;;;9.31;100.00;99051.09;4182375;28;20298;-50
2023/01/06 05:40:01;;;;;;;0.80;0.80;;;;;;;9.25;100.00;99052.00;4170480;28;20362;-50
2023/01/06 05:42:03;;;;;;;0.68;0.68;;;;;;;9.15;100.00;99051.72;4171293;28;20231;-52
2023/01/06 05:44:05;;;;;;;0.82;0.82;;;;;;;9.15;100.00;99068.91;4169458;28;20658;-52
2023/01/06 05:46:08;;;;;;;0.70;0.70;;;;;;;9.04;100.00;99066.09;4168244;28;20335;-51
2023/01/06 05:48:10;;;;;;;1.67;0.70;;;;;;;9.03;100.00;99050.78;4167272;28;20235;-51
2023/01/06 05:50:12;;;;;;;1.75;0.88;;;;;;;9.02;100.00;99057.31;4168281;28;20270;-50
2023/01/06 05:52:14;;;;;;;0.90;0.85;;;;;;;8.99;100.00;99058.59;4167882;28;20211;-51
2023/01/06 05:54:15;;;;;;;1.08;0.80;;;;;;;8.93;100.00;99053.19;4167085;28;20227;-51
2023/01/06 05:56:20;;;;;;;0.90;0.90;;;;;;;8.91;100.00;99060.78;4168940;28;20847;-51
2023/01/06 05:58:21;;;;;;;0.93;0.93;;;;;;;8.94;100.00;99057.63;4167896;28;21015;-50
2023/01/06 06:00:23;;;;;;;1.02;0.73;;;;;;;9.03;100.00;99050.78;4181838;28;20314;-51
2023/01/06 06:02:25;;;;;;;1.02;0.95;;;;;;;8.95;100.00;99062.00;4171824;28;20299;-51
2023/01/06 06:04:27;;;;;;;0.60;0.60;;;;;;;8.93;100.00;99069.56;4184838;28;20294;-50
2023/01/06 06:06:29;;;;;;;0.70;0.70;;;;;;;8.93;100.00;99058.66;4172035;28;20326;-50
2023/01/06 06:08:32;;;;;;;0.90;0.90;;;;;;;8.90;100.00;99059.94;4167506;28;20200;-50
2023/01/06 06:10:33;;;;;;;0.88;0.88;;;;;;;8.91;100.00;99066.25;4172871;28;20260;-52
2023/01/06 06:12:35;;;;;;;0.70;0.70;;;;;;;8.95;100.00;99070.22;4170540;28;20201;-50
2023/01/06 06:14:37;;;;;;;0.80;0.80;;;;;;;8.94;100.00;99082.19;4168356;28;20219;-50
2023/01/06 06:16:39;;;;;;;0.70;0.70;;;;;;;8.99;100.00;99074.97;4167656;28;20204;-50
2023/01/06 06:18:41;;;;;;;1.10;0.90;;;;;;;8.97;100.00;99070.81;4166808;28;20207;-50
2023/01/06 06:20:43;;;;;;;0.80;0.80;;;;;;;8.97;100.00;99068.06;4169505;28;20232;-50
2023/01/06 06:22:45;;;;;;;4.30;1.35;;;;;;;8.98;100.00;99061.56;4174403;28;21099;-50
2023/01/06 06:24:47;;;;;;;0.80;0.80;;;;;;;8.91;100.00;99055.34;4169168;28;20215;-50
2023/01/06 06:26:48;;;;;;;0.85;0.85;;;;;;;8.81;100.00;99055.84;4169745;28;20212;-50
2023/01/06 06:28:50;;;;;;;1.27;0.90;;;;;;;8.89;100.00;99066.47;4168914;28;20207;-50
2023/01/06 06:30:52;;;;;;;0.60;0.60;;;;;;;8.90;100.00;99075.50;4168336;28;20236;-50
2023/01/06 06:32:56;;;;;;;0.68;0.68;;;;;;;8.91;100.00;99077.16;4165679;28;20649;-53
2023/01/06 06:34:57;;;;;;;0.80;0.80;;;;;;;9.02;100.00;99074.50;4166192;28;20328;-51
2023/01/06 06:36:59;;;;;;;0.88;0.88;;;;;;;8.97;100.00;99076.25;4165156;28;20319;-50
2023/01/06 06:39:01;;;;;;;1.40;0.68;;;;;;;8.94;100.00;99074.00;4163966;28;20211;-52
2023/01/06 06:41:03;;;;;;;0.80;0.80;;;;;;;8.91;100.00;99071.69;4163735;28;20270;-49
2023/01/06 06:43:05;;;;;;;1.48;0.95;;;;;;;8.91;100.00;99082.63;4182601;28;20203;-52
2023/01/06 06:45:07;;;;;;;0.70;0.70;;;;;;;9.00;100.00;99064.88;4183615;28;20649;-50
2023/01/06 06:47:13;;;;;;;1.02;1.02;;;;;;;8.91;100.00;99074.44;4183160;28;20222;-50
2023/01/06 06:49:14;;;;;;;0.80;0.80;;;;;;;8.88;100.00;99077.63;4166982;28;20208;-50
2023/01/06 06:51:18;;;;;;;0.93;0.73;;;;;;;8.91;100.00;99082.63;4151046;28;20370;-50
2023/01/06 06:53:20;;;;;;;0.90;0.90;;;;;;;8.94;100.00;99077.53;4167913;28;20873;-47
2023/01/06 06:55:22;;;;;;;1.45;0.65;;;;;;;8.86;100.00;99085.19;4174129;28;20262;-49
2023/01/06 06:57:24;;;;;;;1.10;0.88;;;;;;;8.89;100.00;99084.75;4172595;28;20247;-49
2023/01/06 06:59:25;;;;;;;0.80;0.80;;;;;;;8.86;100.00;99086.03;4171941;28;20199;-49
2023/01/06 07:01:30;;;;;;;0.73;0.73;;;;;;;8.82;100.00;99083.97;4166854;28;20227;-48
2023/01/06 07:03:32;;;;;;;1.65;1.15;;;;;;;8.79;100.00;99085.25;4170502;28;20722;-51
2023/01/06 07:05:34;;;;;;;0.70;0.70;;;;;;;8.83;100.00;99086.47;4167577;28;20579;-49
2023/01/06 07:07:36;;;;;;;0.75;0.75;;;;;;;8.84;100.00;99082.72;4168836;28;20200;-47
2023/01/06 07:09:38;;;;;;;0.80;0.80;;;;;;;8.85;100.00;99088.97;4181807;28;20892;-49
2023/01/06 07:11:39;;;;;;;0.80;0.80;;;;;;;8.84;100.00;99098.22;4167208;28;20311;-48
2023/01/06 07:13:44;;;;;;;1.15;1.15;;;;;;;8.89;100.00;99084.75;4171199;28;20231;-49
2023/01/06 07:15:46;;;;;;;0.60;0.60;;;;;;;8.86;100.00;99090.66;4172084;28;20239;-49
2023/01/06 07:17:47;;;;;;;0.95;0.95;;;;;;;8.85;100.00;99095.28;4171784;28;20216;-48
2023/01/06 07:19:49;;;;;;;0.70;0.70;;;;;;;8.85;100.00;99094.44;4168344;28;20258;-49
2023/01/06 07:21:51;;;;;;;0.80;0.80;;;;;;;8.82;100.00;99101.16;4167370;28;20205;-48
2023/01/06 07:23:53;;;;;;;0.70;0.70;;;;;;;8.83;100.00;99091.91;4169463;28;20224;-48
2023/01/06 07:25:57;;;;;;;0.70;0.70;;;;;;;8.83;100.00;99107.47;4167990;28;20208;-50
2023/01/06 07:28:04;;;;;;;0.90;0.90;;;;;;;8.84;100.00;99103.69;4166993;28;20226;-49
2023/01/06 07:30:06;;;;;;;1.00;0.80;;;;;;;8.92;100.00;99089.75;4166905;28;20263;-49
2023/01/06 07:32:08;;;;;;;0.70;0.70;;;;;;;8.84;100.00;99092.78;4168637;28;20494;-48
2023/01/06 07:34:10;;;;;;;0.82;0.82;;;;;;;8.89;100.00;99095.66;4167469;28;20251;-48
2023/01/06 07:36:12;;;;;;;1.10;0.77;;;;;;;8.85;100.00;99094.44;4156182;28;20613;-48
2023/01/06 07:38:14;;;;;;;0.65;0.65;;;;;;;8.78;100.00;99093.66;4172685;28;20294;-48
2023/01/06 07:40:17;;;;;;;1.80;1.70;;;;;;;8.80;100.00;99094.28;4152847;28;20265;-48
2023/01/06 07:42:19;;;;;;;0.88;0.88;;;;;;;8.78;100.00;99099.97;4171824;28;20689;-50
2023/01/06 07:44:26;;;;;;;1.20;0.82;;;;;;;8.81;100.00;99109.59;4183572;28;20297;-48
2023/01/06 07:46:28;;;;;;;1.50;1.13;;;;;;;8.83;100.00;99112.94;4168821;28;20244;-49
2023/01/06 07:48:29;;;;;;;1.42;1.42;;;;;;;8.83;100.00;99107.47;4150208;28;20259;-49
2023/01/06 07:50:32;;;;;;;1.08;0.82;;;;;;;8.82;100.00;99111.28;4163561;28;20775;-50
2023/01/06 07:52:36;;;;;;;1.33;0.90;;;;;;;8.80;100.00;99107.91;4171749;28;20555;-49
2023/01/06 07:54:38;;;;;;;1.88;0.77;;;;;;;8.91;100.00;99112.66;4184067;28;20227;-49
2023/01/06 07:56:40;;;;;;;0.80;0.80;;;;;;;8.79;100.00;99114.44;4156592;28;20208;-49
2023/01/06 07:58:42;;;;;;;0.98;0.70;;;;;;;8.82;100.00;99120.28;4184884;28;20650;-50
2023/01/06 08:00:44;;;;;;;0.80;0.80;;;;;;;8.87;100.00;99125.91;4170377;28;20227;-48
2023/01/06 08:02:46;;;;;;;0.80;0.80;;;;;;;8.86;100.00;99126.13;4171765;28;20259;-50
2023/01/06 08:04:48;;;;;;;1.38;0.80;;;;;;;8.89;100.00;99131.16;4175499;28;20212;-48
2023/01/06 08:06:50;;;;;;;0.80;0.80;;;;;;;8.93;100.00;99140.53;4175465;28;20285;-48
2023/01/06 08:08:52;;;;;;;1.75;1.65;;;;;;;8.89;100.00;99144.78;4176454;28;20254;-48
2023/01/06 08:10:57;;;;;;;9.60;1.08;;;;;;;8.91;100.00;99142.66;4173882;28;20386;-48
2023/01/06 08:12:59;;;;;;;0.82;0.82;;;;;;;8.91;100.00;99148.13;4169525;28;20200;-48
2023/01/06 08:15:01;;;;;;;0.60;0.60;;;;;;;8.92;100.00;99149.78;4169980;28;20709;-48
2023/01/06 08:17:03;;;;;;;0.70;0.70;;;;;;;8.98;100.00;99147.00;4164885;28;20220;-49
2023/01/06 08:19:04;;;;;;;1.13;1.02;;;;;;;8.95;100.00;99147.44;4150675;28;20304;-49
2023/01/06 08:21:08;;;;;;;3.80;0.75;;;;;;;8.98;100.00;99137.97;4172408;28;20296;-50
2023/01/06 08:23:10;;;;;;;1.23;0.95;;;;;;;8.92;100.00;99136.16;4169996;28;20864;-49
2023/01/06 08:25:12;;;;;;;8.65;1.13;;;;;;;8.91;100.00;99135.31;4174208;28;20299;-50
2023/01/06 08:27:14;;;;;;;0.70;0.70;;;;;;;9.00;100.00;99146.75;4173215;28;20208;-48
2023/01/06 08:29:15;;;;;;;0.90;0.90;;;;;;;8.96;100.00;99140.09;4169234;28;20730;-49
2023/01/06 08:31:19;;;;;;;0.82;0.82;;;;;;;8.98;100.00;99138.81;4168497;28;20709;-49
2023/01/06 08:33:23;;;;;;;2.38;1.52;;;;;;;8.97;100.00;99139.03;4170244;28;20204;-49
2023/01/06 08:35:25;;;;;;;0.77;0.77;;;;;;;8.95;100.00;99139.25;4168333;28;20252;-49
2023/01/06 08:37:27;;;;;;;1.20;1.20;;;;;;;8.97;100.00;99139.88;4169554;28;20204;-49
2023/01/06 08:39:31;;;;;;;0.93;0.77;;;;;;;8.98;100.00;99140.72;4172106;28;20246;-50
2023/01/06 08:41:35;;;;;;;1.00;0.90;;;;;;;9.02;100.00;99141.94;4169943;28;20212;-49
2023/01/06 08:43:40;;;;;;;1.17;1.10;;;;;;;9.02;100.00;99133.75;4173523;28;20212;-49
2023/01/06 08:45:41;;;;;;;0.80;0.80;;;;;;;9.02;100.00;99133.75;4170324;28;20208;-49
2023/01/06 08:47:43;;;;;;;0.85;0.85;;;;;;;9.00;100.00;99135.84;4167691;28;20212;-50
2023/01/06 08:49:45;;;;;;;0.90;0.90;;;;;;;8.96;100.00;99129.19;4171457;28;20204;-49
2023/01/06 08:51:50;;;;;;;0.93;0.93;;;;;;;9.03;100.00;99119.03;4171368;28;20564;-49
2023/01/06 08:53:52;;;;;;;0.77;0.77;;;;;;;9.00;100.00;99114.84;4172353;28;20203;-48
2023/01/06 08:55:53;;;;;;;1.30;1.23;;;;;;;9.05;100.00;99108.72;4173354;28;20255;-49
2023/01/06 08:57:55;;;;;;;1.02;0.90;;;;;;;9.07;100.00;99103.84;4169799;28;20211;-49
2023/01/06 08:59:57;;;;;;;0.95;0.82;;;;;;;9.12;100.00;99102.13;4173294;28;20760;-49
2023/01/06 09:02:00;;;;;;;1.63;0.93;;;;;;;9.15;100.00;99095.41;4171471;28;20315;-49
2023/01/06 09:04:04;;;;;;;0.80;0.80;;;;;;;9.20;100.00;99103.72;4174418;28;20208;-49
2023/01/06 09:06:06;;;;;;;1.25;1.08;;;;;;;9.20;100.00;99103.72;4172997;28;20208;-49
2023/01/06 09:08:08;;;;;;;1.60;0.88;;;;;;;9.22;100.00;99096.16;4174259;28;20204;-48
2023/01/06 09:10:10;;;;;;;1.00;1.00;;;;;;;9.22;100.00;99107.06;4170203;28;20220;-48
2023/01/06 09:12:13;;;;;;;0.88;0.88;;;;;;;9.29;100.00;99103.19;4169768;28;20226;-50
2023/01/06 09:14:15;;;;;;;0.88;0.88;;;;;;;9.30;100.00;99104.03;4162945;28;20216;-49
2023/01/06 09:16:17;;;;;;;1.85;1.30;;;;;;;9.31;100.00;99117.47;4167826;28;20223;-49
2023/01/06 09:18:19;;;;;;;6.72;1.17;;;;;;;9.38;100.00;99122.84;4163996;28;20239;-49
2023/01/06 09:20:21;;;;;;;1.10;1.05;;;;;;;9.39;100.00;99119.06;4165057;28;20318;-49
2023/01/06 09:22:23;;;;;;;0.90;0.90;;;;;;;9.35;100.00;99123.31;4169414;28;20215;-49
2023/01/06 09:24:24;;;;;;;3.50;0.95;;;;;;;9.36;100.00;99114.88;4165014;28;20216;-48
2023/01/06 09:26:29;;;;;;;1.00;0.93;;;;;;;9.33;100.00;99119.94;4165530;28;20689;-49
2023/01/06 09:28:31;;;;;;;1.00;1.00;;;;;;;9.38;100.00;99112.78;4166679;28;20301;-49
2023/01/06 09:30:34;;;;;;;0.93;0.93;;;;;;;9.40;100.00;99128.91;4161871;28;20338;-49
2023/01/06 09:32:36;;;;;;;1.13;1.10;;;;;;;9.40;100.00;99115.25;4165140;28;20204;-49
2023/01/06 09:34:38;;;;;;;2.08;1.10;;;;;;;9.43;100.00;99121.09;4168802;28;20254;-49
2023/01/06 09:36:40;;;;;;;1.10;0.93;;;;;;;9.44;100.00;99120.06;4152690;28;20219;-49
2023/01/06 09:38:41;;;;;;;1.00;1.00;;;;;;;9.48;100.00;99128.63;4169210;28;20204;-49
2023/01/06 09:40:48;;;;;;;1.67;1.00;;;;;;;9.49;100.00;99130.28;4168445;28;20254;-49
2023/01/06 09:42:56;;;;;;;0.70;0.70;;;;;;;9.49;100.00;99135.75;4168332;28;20619;-49
2023/01/06 09:45:04;;;;;;;2.83;1.10;;;;;;;9.51;100.00;99144.53;4181317;28;21110;-48
2023/01/06 09:47:08;;;;;;;2.10;1.70;;;;;;;9.48;100.00;99154.03;4165554;28;20211;-49
2023/01/06 09:49:25;;;;;;;1.15;1.02;;;;;;;9.49;100.00;99157.59;4166892;28;20301;-49
2023/01/06 09:51:28;;;;;;;7.15;1.10;;;;;;;9.54;100.00;99155.03;4164665;28;20256;-49